Time;durP1;ratioP1;P1;durP2;ratioP2;P2;SDS_P1;SDS_P2;PMS_P1;PMS_P2;Temp;Humidity;BMP_temperature;BMP_pressure;BME280_temperature;BME280_humidity;BME280_pressure;Samples;Min_cycle;Max_cycle;Signal;HPM_P1;HPM_P2
2022/05/07 00:02:09;;;;;;;22.33;20.00;;;12.60;99.90;;;;;;5051687;28;20029;-79
2022/05/07 00:04:35;;;;;;;21.92;19.70;;;12.50;99.90;;;;;;5052553;28;20128;-79
2022/05/07 00:07:02;;;;;;;21.38;19.13;;;12.50;99.90;;;;;;5035214;28;20044;-79
2022/05/07 00:09:28;;;;;;;27.10;19.98;;;12.60;99.90;;;;;;5048696;28;20056;-79
2022/05/07 00:11:53;;;;;;;22.65;20.05;;;12.60;99.90;;;;;;5048807;28;20045;-79
2022/05/07 00:14:19;;;;;;;22.23;19.88;;;12.60;99.90;;;;;;5032545;28;20045;-79
2022/05/07 00:19:28;;;;;;;23.00;20.58;;;12.60;99.90;;;;;;5036615;28;20411;-80
2022/05/07 00:21:54;;;;;;;24.33;21.73;;;12.60;99.90;;;;;;5049366;28;20053;-79
2022/05/07 00:24:19;;;;;;;24.30;21.33;;;12.60;99.90;;;;;;5051564;28;20073;-80
2022/05/07 00:26:46;;;;;;;23.35;20.85;;;12.60;99.90;;;;;;5046754;28;20041;-80
2022/05/07 00:29:12;;;;;;;24.58;21.10;;;12.60;99.90;;;;;;5043222;28;20124;-80
2022/05/07 00:31:38;;;;;;;24.20;21.73;;;12.60;99.90;;;;;;5042826;28;20119;-81
2022/05/07 00:34:05;;;;;;;24.58;22.02;;;12.60;99.90;;;;;;5049136;28;20128;-80
2022/05/07 00:36:30;;;;;;;25.45;22.90;;;12.70;99.90;;;;;;5054834;23;20024;-73
2022/05/07 00:38:56;;;;;;;30.65;25.25;;;12.70;99.90;;;;;;5032988;28;20080;-73
2022/05/07 00:41:21;;;;;;;26.33;23.48;;;12.70;99.90;;;;;;5020842;28;20072;-74
2022/05/07 00:43:47;;;;;;;27.30;23.70;;;12.70;99.90;;;;;;5030911;28;20072;-74
2022/05/07 00:46:13;;;;;;;27.15;24.38;;;12.70;99.90;;;;;;5033844;28;20068;-74
2022/05/07 00:48:39;;;;;;;28.15;24.90;;;12.70;99.90;;;;;;5029958;28;20037;-74
2022/05/07 00:53:50;;;;;;;28.27;25.15;;;12.80;99.90;;;;;;5029784;28;20037;-74
2022/05/07 00:56:16;;;;;;;27.65;24.73;;;12.80;99.90;;;;;;5016981;28;20101;-74
2022/05/07 00:58:42;;;;;;;27.50;24.55;;;12.80;99.90;;;;;;5012928;28;20032;-73
2022/05/07 01:01:07;;;;;;;27.88;24.30;;;12.80;99.90;;;;;;5031934;28;20103;-73
2022/05/07 01:03:35;;;;;;;25.63;22.98;;;12.90;99.90;;;;;;5048600;28;20398;-74
2022/05/07 01:06:01;;;;;;;25.02;22.30;;;12.90;99.90;;;;;;5032091;28;20063;-73
2022/05/07 01:08:29;;;;;;;24.58;22.05;;;12.80;99.90;;;;;;5028377;28;20045;-74
2022/05/07 01:10:56;;;;;;;23.70;21.42;;;12.90;99.90;;;;;;5031101;28;20048;-74
2022/05/07 01:13:21;;;;;;;24.08;21.65;;;12.90;99.90;;;;;;5020387;28;20095;-73
2022/05/07 01:15:56;;;;;;;24.95;22.38;;;12.90;99.90;;;;;;5032359;28;20045;-73
2022/05/07 01:18:23;;;;;;;24.40;21.85;;;12.90;99.90;;;;;;5013000;28;20044;-73
2022/05/07 01:20:48;;;;;;;25.88;23.38;;;12.90;99.90;;;;;;5031638;28;20128;-73
2022/05/07 01:23:15;;;;;;;26.52;22.30;;;12.90;99.90;;;;;;5027335;28;20128;-73
2022/05/07 01:25:41;;;;;;;24.83;22.30;;;12.90;99.90;;;;;;5025718;28;20057;-73
2022/05/07 01:28:07;;;;;;;24.42;21.70;;;12.90;99.90;;;;;;5031632;28;20728;-73
2022/05/07 01:30:36;;;;;;;26.92;24.02;;;12.90;99.90;;;;;;5026815;28;20047;-73
2022/05/07 01:33:02;;;;;;;26.42;22.75;;;12.90;99.90;;;;;;5026993;28;20057;-73
2022/05/07 01:35:28;;;;;;;26.67;23.83;;;12.90;99.90;;;;;;5030873;28;20049;-73
2022/05/07 01:37:53;;;;;;;26.20;22.98;;;12.90;99.90;;;;;;5014624;28;20771;-73
2022/05/07 01:40:19;;;;;;;28.02;24.73;;;12.90;99.90;;;;;;5031886;28;20044;-73
2022/05/07 01:42:45;;;;;;;27.60;24.70;;;12.90;99.90;;;;;;5030596;28;20052;-73
2022/05/07 01:45:10;;;;;;;27.98;24.98;;;12.90;99.90;;;;;;5036594;28;20037;-73
2022/05/07 01:50:21;;;;;;;26.95;24.15;;;12.90;99.90;;;;;;5027643;28;20056;-73
2022/05/07 01:52:47;;;;;;;27.85;24.95;;;12.90;99.90;;;;;;5025509;28;20037;-73
2022/05/07 01:55:12;;;;;;;26.40;23.63;;;12.90;99.90;;;;;;5026181;28;20075;-73
2022/05/07 01:57:38;;;;;;;27.63;24.77;;;12.90;99.90;;;;;;5048020;28;20086;-74
2022/05/07 02:00:04;;;;;;;27.75;24.80;;;12.90;99.90;;;;;;5030026;28;20666;-73
2022/05/07 02:02:30;;;;;;;27.67;24.67;;;12.90;99.90;;;;;;5027724;28;20041;-74
2022/05/07 02:04:55;;;;;;;27.48;24.58;;;12.90;99.90;;;;;;5025540;28;20044;-74
2022/05/07 02:07:21;;;;;;;26.90;24.08;;;12.90;99.90;;;;;;5030030;28;20045;-73
2022/05/07 02:09:46;;;;;;;26.20;23.50;;;12.90;99.90;;;;;;5034600;28;20064;-73
2022/05/07 02:12:12;;;;;;;27.65;24.73;;;12.90;99.90;;;;;;5037812;28;20033;-73
2022/05/07 02:14:37;;;;;;;25.83;23.30;;;13.00;99.90;;;;;;5029856;28;20083;-74
2022/05/07 02:17:03;;;;;;;25.83;23.08;;;13.00;99.90;;;;;;5026653;28;20422;-73
2022/05/07 02:19:29;;;;;;;25.02;22.48;;;13.00;99.90;;;;;;5011528;28;20721;-74
2022/05/07 02:21:54;;;;;;;25.23;22.63;;;13.00;99.90;;;;;;5013994;28;20038;-73
2022/05/07 02:24:20;;;;;;;25.60;22.90;;;13.00;99.90;;;;;;5030534;28;20036;-73
2022/05/07 02:26:45;;;;;;;25.02;22.17;;;13.00;99.90;;;;;;5031409;28;20391;-73
2022/05/07 02:29:12;;;;;;;25.33;22.63;;;13.00;99.90;;;;;;5019934;28;20057;-73
2022/05/07 02:31:37;;;;;;;25.52;22.80;;;13.00;99.90;;;;;;5041636;28;20053;-74
2022/05/07 02:34:03;;;;;;;24.95;22.30;;;13.00;99.90;;;;;;5022931;28;20082;-73
2022/05/07 02:36:29;;;;;;;26.67;23.98;;;12.90;99.90;;;;;;5030140;28;20090;-73
2022/05/07 02:38:54;;;;;;;27.05;24.05;;;12.90;99.90;;;;;;5029048;28;20094;-74
2022/05/07 02:44:06;;;;;;;26.00;23.17;;;12.90;99.90;;;;;;5021495;28;20049;-73
2022/05/07 02:46:32;;;;;;;25.50;22.85;;;12.90;99.90;;;;;;5028926;28;20055;-73
2022/05/07 02:48:57;;;;;;;25.42;22.83;;;12.90;99.90;;;;;;5009630;28;20505;-74
2022/05/07 02:51:23;;;;;;;25.70;23.05;;;12.90;99.90;;;;;;4999430;28;20044;-74
2022/05/07 02:53:49;;;;;;;25.67;23.27;;;12.90;99.90;;;;;;5032874;28;20041;-73
2022/05/07 02:56:14;;;;;;;26.98;24.10;;;12.90;99.90;;;;;;5030712;28;20073;-74
2022/05/07 02:58:40;;;;;;;25.40;22.90;;;12.90;99.90;;;;;;5030198;28;20037;-74
2022/05/07 03:01:05;;;;;;;26.63;23.55;;;12.90;99.90;;;;;;5031395;28;20048;-73
2022/05/07 03:03:31;;;;;;;25.55;22.95;;;12.90;99.90;;;;;;5030716;28;20057;-74
2022/05/07 03:05:59;;;;;;;25.92;23.23;;;12.90;99.90;;;;;;5031412;28;20094;-74
2022/05/07 03:08:25;;;;;;;26.20;23.45;;;12.90;99.90;;;;;;5022125;28;20052;-73
2022/05/07 03:10:51;;;;;;;27.10;24.20;;;12.90;99.90;;;;;;5031972;28;20053;-73
2022/05/07 03:13:16;;;;;;;26.60;23.85;;;12.90;99.90;;;;;;5029754;28;20040;-73
2022/05/07 03:15:42;;;;;;;26.92;24.23;;;12.80;99.90;;;;;;5028274;28;20069;-73
2022/05/07 03:18:07;;;;;;;26.38;23.63;;;12.80;99.90;;;;;;5034774;28;20073;-73
2022/05/07 03:20:33;;;;;;;26.65;24.05;;;12.80;99.90;;;;;;5033207;28;20045;-73
2022/05/07 03:22:58;;;;;;;27.27;24.42;;;12.80;99.90;;;;;;5032885;28;20072;-73
2022/05/07 03:25:24;;;;;;;26.55;23.85;;;12.70;99.90;;;;;;5050658;28;20048;-73
2022/05/07 03:27:50;;;;;;;25.27;22.67;;;12.80;99.90;;;;;;5033023;28;20075;-73
2022/05/07 03:30:15;;;;;;;27.00;24.20;;;12.70;99.90;;;;;;5031602;28;20386;-73
2022/05/07 03:32:41;;;;;;;25.13;22.63;;;12.70;99.90;;;;;;5033340;28;20037;-73
2022/05/07 03:35:06;;;;;;;25.63;23.10;;;12.70;99.90;;;;;;5033667;28;20045;-74
2022/05/07 03:37:32;;;;;;;27.63;24.75;;;12.60;99.90;;;;;;5051167;28;20041;-73
2022/05/07 03:39:58;;;;;;;26.30;23.67;;;12.70;99.90;;;;;;5028449;28;20061;-73
2022/05/07 03:42:25;;;;;;;27.27;24.52;;;12.60;99.90;;;;;;5031076;28;20037;-73
2022/05/07 03:44:50;;;;;;;28.77;25.63;;;12.60;99.90;;;;;;5031750;28;20068;-73
2022/05/07 03:47:16;;;;;;;27.10;24.35;;;12.50;99.90;;;;;;5020946;28;20467;-73
2022/05/07 03:49:41;;;;;;;26.42;23.77;;;12.50;99.90;;;;;;5025532;28;20037;-73
2022/05/07 03:54:51;;;;;;;27.02;24.27;;;12.50;99.90;;;;;;5050480;28;20144;-73
2022/05/07 03:57:16;;;;;;;27.92;25.02;;;12.50;99.90;;;;;;5033328;28;20123;-73
2022/05/07 03:59:42;;;;;;;27.67;24.88;;;12.40;99.90;;;;;;5048964;28;20175;-73
2022/05/07 04:02:08;;;;;;;27.40;24.58;;;12.40;99.90;;;;;;5027287;28;20036;-73
2022/05/07 04:04:35;;;;;;;27.52;24.85;;;12.40;99.90;;;;;;5032666;28;20041;-73
2022/05/07 04:07:01;;;;;;;28.08;25.08;;;12.40;99.90;;;;;;5015310;28;20045;-74
2022/05/07 04:09:27;;;;;;;27.30;24.55;;;12.40;99.90;;;;;;5032613;28;20049;-73
2022/05/07 04:11:52;;;;;;;30.55;25.35;;;12.40;99.90;;;;;;5026613;28;20083;-73
2022/05/07 04:14:18;;;;;;;27.88;24.45;;;12.40;99.90;;;;;;5028688;28;20093;-73
2022/05/07 04:16:45;;;;;;;30.67;25.50;;;12.30;99.90;;;;;;5031174;28;20037;-74
2022/05/07 04:19:12;;;;;;;27.85;24.92;;;12.30;99.90;;;;;;5031419;28;20079;-73
2022/05/07 04:21:40;;;;;;;28.08;25.27;;;12.30;99.90;;;;;;5030213;28;20049;-74
2022/05/07 04:24:06;;;;;;;28.10;25.25;;;12.40;99.90;;;;;;5031391;28;20123;-73
2022/05/07 04:26:32;;;;;;;29.35;26.17;;;12.40;99.90;;;;;;5032565;28;20207;-73
2022/05/07 04:28:57;;;;;;;28.00;25.02;;;12.40;99.90;;;;;;5031035;28;20074;-74
2022/05/07 04:31:24;;;;;;;28.75;25.85;;;12.40;99.90;;;;;;5028094;28;20036;-73
2022/05/07 04:33:50;;;;;;;28.08;25.10;;;12.40;99.90;;;;;;5049768;28;20355;-74
2022/05/07 04:36:16;;;;;;;29.38;25.63;;;12.40;99.90;;;;;;5031968;28;20067;-73
2022/05/07 04:38:41;;;;;;;28.05;25.30;;;12.50;99.90;;;;;;5032475;28;20060;-74
2022/05/07 04:41:07;;;;;;;28.35;25.35;;;12.50;99.90;;;;;;5048427;28;20039;-73
2022/05/07 04:43:33;;;;;;;30.00;26.88;;;12.50;99.90;;;;;;5020558;28;20163;-73
2022/05/07 04:45:58;;;;;;;30.15;26.95;;;12.60;99.90;;;;;;5024912;28;20045;-73
2022/05/07 04:48:24;;;;;;;29.00;26.20;;;12.60;99.90;;;;;;5045106;28;20037;-73
2022/05/07 04:50:49;;;;;;;29.23;26.13;;;12.60;99.90;;;;;;5032395;28;20041;-73
2022/05/07 04:53:15;;;;;;;30.05;26.95;;;12.60;99.90;;;;;;5020708;28;20048;-73
2022/05/07 04:55:40;;;;;;;29.55;26.55;;;12.60;99.90;;;;;;5031106;28;20106;-73
2022/05/07 04:58:06;;;;;;;28.92;26.17;;;12.60;99.90;;;;;;5019191;28;20076;-72
2022/05/07 05:00:31;;;;;;;29.77;25.38;;;12.60;99.90;;;;;;5031064;28;20064;-73
2022/05/07 05:02:57;;;;;;;30.17;27.05;;;12.70;99.90;;;;;;5030431;28;20033;-73
2022/05/07 05:05:25;;;;;;;29.83;26.90;;;12.60;99.90;;;;;;5037334;28;20179;-72
2022/05/07 05:07:51;;;;;;;28.65;25.90;;;12.70;99.90;;;;;;5007688;28;20263;-72
2022/05/07 05:10:17;;;;;;;29.60;26.58;;;12.70;99.90;;;;;;5039246;28;20458;-72
2022/05/07 05:12:43;;;;;;;30.52;27.38;;;12.80;99.90;;;;;;5042675;28;20049;-72
2022/05/07 05:15:09;;;;;;;29.15;26.35;;;12.80;99.90;;;;;;5023836;28;20048;-72
2022/05/07 05:17:37;;;;;;;30.63;27.48;;;12.80;99.90;;;;;;5026369;28;20032;-72
2022/05/07 05:20:04;;;;;;;29.15;26.02;;;12.80;99.90;;;;;;5028299;28;20540;-72
2022/05/07 05:22:30;;;;;;;31.27;27.85;;;12.90;99.90;;;;;;5001257;28;20044;-73
2022/05/07 05:24:56;;;;;;;31.35;28.13;;;12.90;99.90;;;;;;5029007;28;20603;-79
2022/05/07 05:27:22;;;;;;;32.88;29.63;;;13.00;99.90;;;;;;5019850;28;20076;-80
2022/05/07 05:29:47;;;;;;;31.80;28.58;;;13.00;99.90;;;;;;5018213;28;20033;-80
2022/05/07 05:32:17;;;;;;;30.83;27.70;;;13.10;99.90;;;;;;5033341;28;20057;-80
2022/05/07 05:34:53;;;;;;;32.08;28.70;;;13.10;99.90;;;;;;5049324;28;20102;-79
2022/05/07 05:37:19;;;;;;;30.85;27.73;;;13.20;99.90;;;;;;5017037;28;20054;-80
2022/05/07 05:39:44;;;;;;;32.50;29.35;;;13.20;99.90;;;;;;5013967;28;20045;-80
2022/05/07 05:42:11;;;;;;;31.45;28.25;;;13.30;99.90;;;;;;5010194;28;20474;-80
2022/05/07 05:44:38;;;;;;;30.98;27.92;;;13.40;99.90;;;;;;5010145;28;20125;-80
2022/05/07 05:47:05;;;;;;;31.55;28.33;;;13.40;99.90;;;;;;5009803;28;20132;-80
2022/05/07 05:49:30;;;;;;;31.38;28.25;;;13.50;99.90;;;;;;5008665;28;20045;-80
2022/05/07 05:51:56;;;;;;;30.70;27.50;;;13.60;99.90;;;;;;5009852;28;20410;-80
2022/05/07 05:54:22;;;;;;;31.15;28.02;;;13.80;99.90;;;;;;5006385;28;20038;-80
2022/05/07 05:56:47;;;;;;;29.63;26.65;;;13.90;99.90;;;;;;4990477;28;20121;-81
2022/05/07 05:59:13;;;;;;;30.35;27.45;;;14.00;99.90;;;;;;4982193;28;20048;-80
2022/05/07 06:01:38;;;;;;;29.10;26.48;;;14.20;99.90;;;;;;5009046;28;20446;-81
2022/05/07 06:04:04;;;;;;;29.20;26.17;;;14.30;99.90;;;;;;5009041;28;20065;-81
2022/05/07 06:06:29;;;;;;;28.85;26.13;;;14.40;99.90;;;;;;5010520;28;20033;-80
2022/05/07 06:08:55;;;;;;;28.83;26.02;;;14.60;99.90;;;;;;5010037;28;20038;-80
2022/05/07 06:11:21;;;;;;;27.83;25.25;;;14.80;99.90;;;;;;4998325;28;20049;-80
2022/05/07 06:13:47;;;;;;;27.05;24.50;;;14.90;99.90;;;;;;4990800;28;20081;-80
2022/05/07 06:16:13;;;;;;;27.80;25.10;;;15.00;99.90;;;;;;5020014;28;20042;-80
2022/05/07 06:18:38;;;;;;;25.70;23.30;;;15.00;99.90;;;;;;5010451;28;20049;-80
2022/05/07 06:21:04;;;;;;;26.92;24.33;;;15.00;99.90;;;;;;5010090;28;20045;-80
2022/05/07 06:23:30;;;;;;;27.30;24.70;;;15.00;99.90;;;;;;5010523;28;20042;-80
2022/05/07 06:28:39;;;;;;;27.75;25.17;;;15.10;99.90;;;;;;5010076;28;20058;-80
2022/05/07 06:31:05;;;;;;;27.45;24.85;;;15.10;99.90;;;;;;4993921;28;20067;-80
2022/05/07 06:33:32;;;;;;;27.92;25.23;;;15.20;99.90;;;;;;5008537;28;20056;-79
2022/05/07 06:35:58;;;;;;;26.05;23.63;;;15.20;99.90;;;;;;5026861;28;20052;-79
2022/05/07 06:38:23;;;;;;;25.95;23.45;;;15.20;99.90;;;;;;5009971;28;20062;-79
2022/05/07 06:40:50;;;;;;;26.98;24.52;;;15.20;99.90;;;;;;5010125;28;20065;-80
2022/05/07 06:43:16;;;;;;;29.48;26.60;;;15.20;99.90;;;;;;5012356;28;20379;-80
2022/05/07 06:45:42;;;;;;;27.63;24.95;;;15.30;99.90;;;;;;5012478;28;20128;-80
2022/05/07 06:48:11;;;;;;;28.95;25.98;;;15.30;99.90;;;;;;5010470;28;20042;-80
2022/05/07 06:50:37;;;;;;;27.17;24.50;;;15.30;99.90;;;;;;5013199;28;20622;-80
2022/05/07 06:53:03;;;;;;;27.80;25.02;;;15.40;99.90;;;;;;5015332;28;20049;-80
2022/05/07 06:55:31;;;;;;;26.40;23.80;;;15.50;99.90;;;;;;5014956;28;20073;-76
2022/05/07 06:57:58;;;;;;;24.25;22.00;;;15.50;99.90;;;;;;5012472;28;20042;-77
2022/05/07 07:00:24;;;;;;;24.75;21.88;;;15.60;99.90;;;;;;5013558;28;20041;-77
2022/05/07 07:02:50;;;;;;;23.95;21.80;;;15.80;99.90;;;;;;4993532;28;20122;-77
2022/05/07 07:05:16;;;;;;;23.92;21.65;;;16.30;99.90;;;;;;4994457;28;20046;-78
2022/05/07 07:07:42;;;;;;;22.85;20.52;;;17.10;99.90;;;;;;4989846;28;20621;-78
2022/05/07 07:10:08;;;;;;;22.67;20.45;;;17.70;99.90;;;;;;5013653;28;20375;-77
2022/05/07 07:12:41;;;;;;;24.27;21.00;;;17.90;99.90;;;;;;5010931;28;20064;-78
2022/05/07 07:15:08;;;;;;;21.85;19.52;;;18.00;99.90;;;;;;5013252;28;20034;-77
2022/05/07 07:17:34;;;;;;;20.25;18.30;;;18.20;99.90;;;;;;4996141;28;20072;-77
2022/05/07 07:19:59;;;;;;;22.08;19.77;;;18.30;99.90;;;;;;5012603;28;20073;-78
2022/05/07 07:22:25;;;;;;;21.42;19.30;;;18.40;99.90;;;;;;5008549;28;20034;-78
2022/05/07 07:24:50;;;;;;;20.05;18.13;;;18.70;99.90;;;;;;5010142;28;20096;-76
2022/05/07 07:27:16;;;;;;;21.40;19.48;;;19.20;99.90;;;;;;4990272;28;20058;-76
2022/05/07 07:29:44;;;;;;;21.70;19.48;;;19.50;99.90;;;;;;5006303;28;20077;-77
2022/05/07 07:32:09;;;;;;;20.92;18.83;;;20.00;99.10;;;;;;4989245;28;20065;-77
2022/05/07 07:34:35;;;;;;;19.85;17.98;;;20.20;97.90;;;;;;5009544;28;20068;-77
2022/05/07 07:37:00;;;;;;;20.15;18.35;;;20.30;96.90;;;;;;5019353;28;20080;-76
2022/05/07 07:39:26;;;;;;;19.42;17.63;;;20.20;97.30;;;;;;5018911;28;20037;-76
2022/05/07 07:41:51;;;;;;;19.38;17.63;;;20.10;96.00;;;;;;5033563;28;20037;-77
2022/05/07 07:44:17;;;;;;;20.15;18.20;;;19.80;97.10;;;;;;5051782;28;20041;-76
2022/05/07 07:49:27;;;;;;;20.50;18.58;;;19.50;97.50;;;;;;5034697;28;20041;-76
2022/05/07 07:51:52;;;;;;;19.60;17.90;;;19.40;98.40;;;;;;5015392;28;20045;-77
2022/05/07 07:54:18;;;;;;;17.75;16.20;;;19.20;98.50;;;;;;5026236;28;20441;-77
2022/05/07 07:56:43;;;;;;;18.42;16.65;;;19.20;98.70;;;;;;5052928;28;20055;-77
2022/05/07 07:59:10;;;;;;;20.02;18.13;;;19.00;98.30;;;;;;5041786;28;20053;-77
2022/05/07 08:01:35;;;;;;;19.40;17.40;;;18.90;98.10;;;;;;5026701;28;20167;-77
2022/05/07 08:04:01;;;;;;;18.65;16.92;;;18.60;99.10;;;;;;5034498;28;20136;-77
2022/05/07 08:06:28;;;;;;;18.95;17.08;;;18.60;99.40;;;;;;5018104;28;20176;-77
2022/05/07 08:11:42;;;;;;;21.30;19.20;;;18.60;99.00;;;;;;5030425;28;20045;-77
2022/05/07 08:14:08;;;;;;;22.15;20.10;;;18.40;99.10;;;;;;5030252;28;20120;-77
2022/05/07 08:16:34;;;;;;;21.63;19.63;;;18.30;99.90;;;;;;5047589;28;20132;-77
2022/05/07 08:19:00;;;;;;;20.92;19.02;;;18.20;99.90;;;;;;5014858;28;20060;-77
2022/05/07 08:21:26;;;;;;;21.95;18.70;;;18.30;99.90;;;;;;5029265;28;20387;-77
2022/05/07 08:23:52;;;;;;;23.88;20.27;;;18.50;99.90;;;;;;5028240;28;20032;-77
2022/05/07 08:26:17;;;;;;;21.17;18.98;;;18.50;99.70;;;;;;5029092;28;20044;-77
2022/05/07 08:28:44;;;;;;;23.20;20.83;;;18.70;99.80;;;;;;5029529;28;20056;-72
2022/05/07 08:31:10;;;;;;;20.90;18.80;;;18.80;99.40;;;;;;5031532;28;20343;-72
2022/05/07 08:33:40;;;;;;;21.58;19.67;;;18.80;99.30;;;;;;5054919;28;20748;-72
2022/05/07 08:36:05;;;;;;;21.05;18.95;;;18.50;97.80;;;;;;5033928;28;20033;-72
2022/05/07 08:38:31;;;;;;;20.00;18.17;;;18.40;98.60;;;;;;5050389;28;20144;-72
2022/05/07 08:41:00;;;;;;;19.23;17.33;;;18.30;99.00;;;;;;5033990;28;20463;-72
2022/05/07 08:43:26;;;;;;;21.27;19.17;;;18.50;98.20;;;;;;5033582;28;20053;-72
2022/05/07 08:45:51;;;;;;;22.08;19.77;;;18.20;98.90;;;;;;5028353;28;20182;-72
2022/05/07 08:48:18;;;;;;;21.98;19.85;;;18.20;99.70;;;;;;5010043;28;20127;-72
2022/05/07 08:50:45;;;;;;;21.08;18.88;;;18.00;99.60;;;;;;5019189;28;20045;-72
2022/05/07 08:53:10;;;;;;;19.70;17.80;;;18.30;99.60;;;;;;5046945;28;20083;-72
2022/05/07 08:55:36;;;;;;;20.40;18.48;;;18.60;98.10;;;;;;5033292;28;20037;-72
2022/05/07 08:58:02;;;;;;;19.13;17.20;;;18.80;98.70;;;;;;5030986;28;20425;-73
2022/05/07 09:00:28;;;;;;;21.13;19.05;;;19.00;99.30;;;;;;5031636;28;20080;-74
2022/05/07 09:03:00;;;;;;;20.00;18.10;;;18.70;98.60;;;;;;5021808;28;20037;-74
2022/05/07 09:05:36;;;;;;;20.20;18.05;;;18.50;98.60;;;;;;5031766;28;20037;-74
2022/05/07 09:08:03;;;;;;;20.13;18.20;;;18.80;98.80;;;;;;5033026;28;20041;-74
2022/05/07 09:10:31;;;;;;;20.80;18.60;;;18.90;98.70;;;;;;5016223;28;20482;-74
2022/05/07 09:13:14;;;;;;;19.05;17.15;;;18.90;99.00;;;;;;5016515;28;20171;-74
2022/05/07 09:15:57;;;;;;;20.30;18.27;;;18.70;98.80;;;;;;5030534;28;20048;-73
2022/05/07 09:18:28;;;;;;;21.17;18.98;;;18.90;98.80;;;;;;5024758;28;20045;-73
2022/05/07 09:21:19;;;;;;;21.08;18.98;;;19.00;98.20;;;;;;5025152;28;20072;-73
2022/05/07 09:23:57;;;;;;;19.85;17.95;;;19.00;98.60;;;;;;5028900;28;20053;-73
2022/05/07 09:26:31;;;;;;;20.65;18.50;;;19.00;98.50;;;;;;5021276;28;20490;-74
2022/05/07 09:28:57;;;;;;;20.73;18.52;;;19.00;98.00;;;;;;5029759;28;20368;-73
2022/05/07 09:31:29;;;;;;;20.13;18.25;;;18.80;98.10;;;;;;5048099;28;20033;-74
2022/05/07 09:33:55;;;;;;;20.10;18.05;;;18.90;98.30;;;;;;5000564;28;20041;-74
2022/05/07 09:36:24;;;;;;;18.73;16.85;;;18.60;98.00;;;;;;5026583;28;20112;-73
2022/05/07 09:39:03;;;;;;;18.73;16.83;;;18.40;98.20;;;;;;5019988;28;20063;-73
2022/05/07 09:41:29;;;;;;;16.33;14.82;;;18.70;98.10;;;;;;5026581;28;20037;-74
2022/05/07 09:43:55;;;;;;;17.98;16.17;;;18.90;97.40;;;;;;5024849;28;20060;-74
2022/05/07 09:46:21;;;;;;;20.77;18.83;;;19.00;97.40;;;;;;5026110;28;20053;-73
2022/05/07 09:48:47;;;;;;;20.00;17.77;;;19.10;97.70;;;;;;5027033;28;20041;-73
2022/05/07 09:51:12;;;;;;;22.45;20.45;;;19.20;97.80;;;;;;5023785;28;20060;-73
2022/05/07 09:59:09;;;;;;;22.58;20.42;;;19.20;98.60;;;;;;5021825;28;20041;-73
2022/05/07 10:02:04;;;;;;;22.25;20.33;;;19.60;97.50;;;;;;5030973;28;20045;-73
2022/05/07 10:05:01;;;;;;;22.45;20.15;;;19.40;98.40;;;;;;5043008;28;20045;-73
2022/05/07 10:07:38;;;;;;;21.40;19.13;;;19.20;97.50;;;;;;5024374;28;20045;-74
2022/05/07 10:10:22;;;;;;;23.23;21.00;;;19.10;98.30;;;;;;5026968;28;20044;-73
2022/05/07 10:12:47;;;;;;;21.45;19.58;;;19.50;97.20;;;;;;5030662;28;20048;-73
2022/05/07 10:15:22;;;;;;;21.38;19.27;;;19.80;97.50;;;;;;5027159;28;20483;-74
2022/05/07 10:17:58;;;;;;;20.13;18.13;;;19.90;97.30;;;;;;5050025;28;20123;-73
2022/05/07 10:20:24;;;;;;;19.23;17.42;;;20.20;96.70;;;;;;5030791;28;20036;-73
2022/05/07 10:22:56;;;;;;;21.00;19.05;;;20.40;96.50;;;;;;5027736;28;20078;-73
2022/05/07 10:25:22;;;;;;;19.15;17.10;;;19.80;95.50;;;;;;5013072;28;20045;-73
2022/05/07 10:27:49;;;;;;;19.20;17.13;;;19.80;96.20;;;;;;5001970;28;20045;-73
2022/05/07 10:30:16;;;;;;;18.08;15.60;;;20.20;95.50;;;;;;5047860;28;20039;-73
2022/05/07 10:33:01;;;;;;;18.05;16.17;;;20.20;94.20;;;;;;5031709;28;20103;-73
2022/05/07 10:35:44;;;;;;;16.48;14.98;;;20.20;94.40;;;;;;5034075;28;20045;-73
2022/05/07 10:38:27;;;;;;;18.42;16.52;;;20.30;94.30;;;;;;5010621;28;20415;-73
2022/05/07 10:40:54;;;;;;;20.80;16.10;;;20.00;94.40;;;;;;5015914;28;20049;-73
2022/05/07 10:43:55;;;;;;;17.05;15.35;;;20.40;94.50;;;;;;5007505;28;20752;-73
2022/05/07 10:46:22;;;;;;;16.52;14.85;;;20.50;94.10;;;;;;5022471;28;20486;-72
2022/05/07 10:48:48;;;;;;;16.02;14.35;;;20.10;93.60;;;;;;5035604;28;20048;-72
2022/05/07 10:51:21;;;;;;;16.02;14.45;;;20.00;94.10;;;;;;5053574;28;20091;-72
2022/05/07 10:53:49;;;;;;;17.23;15.07;;;20.30;93.40;;;;;;5033208;28;20107;-73
2022/05/07 10:56:19;;;;;;;16.02;14.25;;;20.50;93.90;;;;;;5021772;28;20132;-73
2022/05/07 10:58:50;;;;;;;17.52;15.63;;;20.50;92.30;;;;;;5014725;28;20154;-73
2022/05/07 11:01:18;;;;;;;25.20;22.60;;;20.30;92.90;;;;;;5035724;28;20065;-73
2022/05/07 11:03:44;;;;;;;26.63;23.88;;;20.30;95.20;;;;;;5015337;28;20050;-72
2022/05/07 11:06:10;;;;;;;29.67;26.73;;;20.30;96.20;;;;;;5026329;28;20061;-72
2022/05/07 11:08:53;;;;;;;30.75;27.60;;;20.10;98.00;;;;;;5030315;28;20064;-72
2022/05/07 11:11:18;;;;;;;29.15;26.17;;;19.80;98.30;;;;;;5031944;28;20075;-73
2022/05/07 11:14:02;;;;;;;28.15;25.20;;;19.90;98.30;;;;;;5032399;28;20178;-73
2022/05/07 11:16:28;;;;;;;32.50;29.33;;;20.30;97.90;;;;;;5035425;28;20397;-73
2022/05/07 11:18:54;;;;;;;30.05;26.58;;;19.80;98.20;;;;;;5035143;28;20124;-73
2022/05/07 11:21:21;;;;;;;29.38;26.40;;;20.00;97.90;;;;;;5028257;28;20041;-73
2022/05/07 11:23:55;;;;;;;27.35;24.55;;;20.20;97.80;;;;;;5035113;28;20090;-73
2022/05/07 11:26:21;;;;;;;26.27;23.60;;;20.30;97.30;;;;;;5034425;28;20052;-73
2022/05/07 11:28:48;;;;;;;23.02;20.73;;;20.40;97.30;;;;;;5033883;28;20044;-73
2022/05/07 11:31:31;;;;;;;25.80;23.30;;;20.50;96.00;;;;;;5031332;28;20076;-73
2022/05/07 11:34:04;;;;;;;25.67;23.13;;;20.70;95.90;;;;;;5031283;28;20053;-73
2022/05/07 11:36:31;;;;;;;24.00;21.20;;;20.70;95.20;;;;;;5034528;28;20124;-73
2022/05/07 11:39:02;;;;;;;24.75;22.25;;;20.60;95.50;;;;;;5032823;28;20045;-73
2022/05/07 11:41:27;;;;;;;24.60;21.67;;;20.40;96.00;;;;;;5033413;28;20119;-73
2022/05/07 11:46:55;;;;;;;26.23;23.52;;;19.90;96.10;;;;;;5031505;28;20049;-73
2022/05/07 11:49:33;;;;;;;27.50;24.70;;;20.10;96.30;;;;;;5017800;28;20040;-74
2022/05/07 11:52:10;;;;;;;27.55;24.80;;;20.10;97.10;;;;;;5034384;28;20041;-74
2022/05/07 11:54:36;;;;;;;25.63;22.73;;;19.90;97.30;;;;;;5034367;28;20059;-74
2022/05/07 11:57:03;;;;;;;27.00;24.10;;;20.10;96.20;;;;;;5034169;28;20041;-73
2022/05/07 11:59:29;;;;;;;27.45;22.88;;;20.40;95.80;;;;;;5034133;28;20037;-74
2022/05/07 12:01:55;;;;;;;25.90;22.88;;;20.70;94.80;;;;;;5013028;28;20153;-74
2022/05/07 12:04:30;;;;;;;26.30;23.52;;;20.90;95.20;;;;;;5027037;28;20053;-73
2022/05/07 12:06:56;;;;;;;26.25;23.50;;;21.20;94.70;;;;;;5032238;28;20037;-72
2022/05/07 12:09:22;;;;;;;27.95;24.95;;;21.30;94.10;;;;;;5033915;28;20890;-72
2022/05/07 12:11:49;;;;;;;28.40;24.85;;;21.10;95.00;;;;;;5017928;28;20055;-74
2022/05/07 12:14:14;;;;;;;29.23;26.10;;;21.40;94.30;;;;;;5034245;28;20045;-75
2022/05/07 12:19:33;;;;;;;27.98;24.98;;;20.40;97.40;;;;;;5034275;28;20053;-74
2022/05/07 12:30:15;;;;;;;31.25;22.50;;;20.40;97.00;;;;;;5036901;28;20077;-74
2022/05/07 12:32:44;;;;;;;21.38;19.17;;;20.30;98.20;;;;;;5050547;28;20048;-74
2022/05/07 12:35:11;;;;;;;21.42;18.92;;;20.60;96.90;;;;;;5034049;28;20041;-74
2022/05/07 12:37:37;;;;;;;19.67;16.60;;;20.70;97.10;;;;;;5033637;28;20106;-74
2022/05/07 12:40:04;;;;;;;18.98;16.02;;;20.80;96.30;;;;;;5013468;28;20094;-74
2022/05/07 12:42:30;;;;;;;21.95;19.60;;;20.90;97.00;;;;;;5046612;28;20090;-74
2022/05/07 12:44:55;;;;;;;24.42;19.83;;;20.50;96.80;;;;;;5032899;28;20037;-74
2022/05/07 12:47:21;;;;;;;21.40;17.83;;;20.50;97.30;;;;;;5031314;28;20081;-74
2022/05/07 12:49:46;;;;;;;23.50;17.50;;;20.70;96.20;;;;;;5034003;28;20128;-74
2022/05/07 12:52:13;;;;;;;19.63;17.55;;;20.70;95.80;;;;;;5057007;23;20143;-78
2022/05/07 12:54:39;;;;;;;21.02;18.75;;;20.60;97.00;;;;;;5080144;28;20055;-78
2022/05/07 12:57:05;;;;;;;20.65;18.45;;;20.60;96.50;;;;;;5070951;28;20475;-78
2022/05/07 12:59:30;;;;;;;19.80;16.88;;;19.90;97.90;;;;;;5069617;28;20089;-78
2022/05/07 13:01:57;;;;;;;16.58;14.50;;;19.80;98.20;;;;;;5071972;28;20037;-78
2022/05/07 13:04:24;;;;;;;13.75;12.35;;;19.50;99.10;;;;;;5067364;28;20064;-78
2022/05/07 13:06:53;;;;;;;14.68;12.18;;;19.50;98.50;;;;;;5052573;28;20060;-78
2022/05/07 13:09:19;;;;;;;18.73;10.93;;;19.80;98.00;;;;;;5098223;28;20082;-78
2022/05/07 13:11:44;;;;;;;12.60;11.25;;;20.10;97.40;;;;;;5057835;28;20086;-78